This is the latest recevied weather packets stored in our database for station/object N4OOJ-13. If no packets are shown the sender has not sent any weather packets the latest 10 day(s).
| Time | Temp. | Humidity | Pressure | Rain* | Wind** | Luminosity | Snow |
|---|---|---|---|---|---|---|---|
| 1777424418 | 18.33° C | 84% | 1019.2 hPa | 0 mm | - | - | - |
| 1777423829 | 18.89° C | 82% | 1019.2 hPa | 0 mm | - | - | - |
| 1777423225 | 18.89° C | 82% | 1019.7 hPa | 0 mm | - | - | - |
| 1777422624 | 19.44° C | 79% | 1019.7 hPa | 0 mm | - | - | - |
| 1777422017 | 20° C | 77% | 1019.4 hPa | 0 mm | - | - | - |
| 1777421430 | 20.56° C | 75% | 1019.1 hPa | 0 mm | - | - | - |
| 1777420826 | 21.11° C | 71% | 1019 hPa | 0 mm | - | - | - |
| 1777420219 | 22.22° C | 70% | 1019 hPa | 0 mm | - | - | - |
| 1777419633 | 22.78° C | 65% | 1018.8 hPa | 0 mm | - | - | - |
| 1777419026 | 23.89° C | 64% | 1019.1 hPa | 0 mm | - | - | - |
| 1777418420 | 25° C | 60% | 1019 hPa | 0 mm | - | - | - |
| 1777417833 | 26.67° C | 55% | 1018.8 hPa | 0 mm | - | - | - |
| 1777417234 | 27.22° C | 50% | 1018.6 hPa | 0 mm | - | - | - |
| 1777416633 | 28.33° C | 49% | 1018.5 hPa | 0 mm | - | - | - |
| 1777416032 | 27.78° C | 50% | 1018.7 hPa | 0 mm | - | - | - |
| 1777415431 | 28.89° C | 47% | 1018.9 hPa | 0 mm | - | - | - |
| 1777414829 | 28.89° C | 46% | 1018.9 hPa | 0 mm | - | - | - |
| 1777414227 | 28.33° C | 48% | 1018.9 hPa | 0 mm | - | - | - |
| 1777413625 | 28.33° C | 47% | 1018.8 hPa | 0 mm | - | - | - |
| 1777413019 | 27.22° C | 50% | 1018.8 hPa | 0 mm | - | - | - |
| 1777412431 | 26.67° C | 52% | 1018.7 hPa | 0 mm | - | - | - |
| 1777411832 | 26.11° C | 52% | 1018.7 hPa | 0 mm | - | - | - |
| 1777411226 | 26.67° C | 52% | 1019 hPa | 0 mm | - | - | - |
| 1777410625 | 26.67° C | 52% | 1019.4 hPa | 0 mm | - | - | - |
| 1777410025 | 27.22° C | 50% | 1019.6 hPa | 0 mm | - | - | - |
* Rain latest hour (hover to see other rain measurements)
** Current wind speed in m/s (hover to see current wind gust speed)